Time;durP1;ratioP1;P1;durP2;ratioP2;P2;SDS_P1;SDS_P2;PMS_P1;PMS_P2;Temp;Humidity;BMP_temperature;BMP_pressure;BME280_temperature;BME280_humidity;BME280_pressure;Samples;Min_cycle;Max_cycle;Signal;HPM_P1;HPM_P2
2023/08/11 00:02:05;;;;;;;;;;;;;;;15.52;97.69;95615.09;5135834;27;1027;-58
2023/08/11 00:04:31;;;;;;;;;;;;;;;15.40;98.25;95622.75;5135715;27;1995;-57
2023/08/11 00:06:57;;;;;;;;;;;;;;;15.14;98.20;95623.94;5135698;27;1087;-58
2023/08/11 00:09:24;;;;;;;;;;;;;;;15.00;98.74;95628.22;5135579;27;1031;-58
2023/08/11 00:11:50;;;;;;;;;;;;;;;15.33;98.26;95629.91;5135627;27;1036;-58
2023/08/11 00:14:16;;;;;;;;;;;;;;;15.51;96.88;95618.81;5135625;27;1267;-58
2023/08/11 00:16:42;;;;;;;;;;;;;;;15.50;97.21;95626.06;5135846;27;1052;-58
2023/08/11 00:19:08;;;;;;;;;;;;;;;15.33;97.58;95628.03;5133653;27;1350;-58
2023/08/11 00:21:34;;;;;;;;;;;;;;;14.87;98.45;95630.63;5115036;28;1068;-58
2023/08/11 00:24:00;;;;;;;;;;;;;;;14.87;98.19;95629.81;5115169;28;1047;-58
2023/08/11 00:26:26;;;;;;;;;;;;;;;15.09;98.43;95631.72;5114768;28;1910;-58
2023/08/11 00:28:52;;;;;;;;;;;;;;;15.22;99.40;95626.59;5114756;28;1036;-58
2023/08/11 00:31:18;;;;;;;;;;;;;;;15.19;100.00;95626.94;5114431;28;1088;-59
2023/08/11 00:33:46;;;;;;;;;;;;;;;15.03;99.86;95625.19;5114738;28;1019;-58
2023/08/11 00:36:13;;;;;;;;;;;;;;;15.09;99.58;95625.50;5114103;28;1055;-58
2023/08/11 00:38:39;;;;;;;;;;;;;;;15.33;99.08;95625.34;5114754;28;973;-57
2023/08/11 00:41:06;;;;;;;;;;;;;;;15.43;99.11;95623.22;5114800;28;1041;-58
2023/08/11 00:43:32;;;;;;;;;;;;;;;15.40;98.82;95620.06;5114672;28;1028;-58
2023/08/11 00:46:01;;;;;;;;;;;;;;;15.17;99.03;95625.44;5114301;28;1988;-59
2023/08/11 00:48:27;;;;;;;;;;;;;;;15.05;98.00;95622.31;5114538;28;992;-58
2023/08/11 00:50:57;;;;;;;;;;;;;;;15.12;98.16;95625.13;5114316;28;1044;-58
2023/08/11 00:53:24;;;;;;;;;;;;;;;14.97;98.17;95628.59;5114223;28;1126;-58
2023/08/11 00:55:51;;;;;;;;;;;;;;;14.95;99.83;95624.38;5114594;28;1028;-58
2023/08/11 00:58:17;;;;;;;;;;;;;;;15.14;98.68;95618.56;5114135;28;1040;-58
2023/08/11 01:00:45;;;;;;;;;;;;;;;15.05;98.73;95616.94;5114513;28;1039;-58
2023/08/11 01:03:11;;;;;;;;;;;;;;;14.92;100.00;95622.88;5114338;28;1041;-58
2023/08/11 01:05:43;;;;;;;;;;;;;;;14.68;100.00;95623.00;5114050;28;1990;-58
2023/08/11 01:08:18;;;;;;;;;;;;;;;14.73;99.74;95612.56;5126078;27;1095;-58
2023/08/11 01:10:45;;;;;;;;;;;;;;;14.92;100.00;95614.81;5134902;27;1056;-59
2023/08/11 01:13:15;;;;;;;;;;;;;;;15.00;100.00;95614.75;5134462;27;1114;-58
2023/08/11 01:15:43;;;;;;;;;;;;;;;15.07;100.00;95614.91;5134565;27;1045;-58
2023/08/11 01:18:10;;;;;;;;;;;;;;;15.15;100.00;95622.09;5134803;27;1000;-58
2023/08/11 01:20:36;;;;;;;;;;;;;;;15.30;100.00;95620.28;5120227;27;1612;-58
2023/08/11 01:23:04;;;;;;;;;;;;;;;15.37;100.00;95617.75;5114220;28;1083;-58
2023/08/11 01:25:32;;;;;;;;;;;;;;;15.31;100.00;95626.50;5113883;28;1909;-58
2023/08/11 01:27:59;;;;;;;;;;;;;;;15.17;100.00;95628.13;5113856;28;1025;-58
2023/08/11 01:30:26;;;;;;;;;;;;;;;15.22;100.00;95628.44;5113691;28;1131;-58
2023/08/11 01:32:52;;;;;;;;;;;;;;;15.42;99.51;95626.09;5113697;28;1076;-58
2023/08/11 01:35:18;;;;;;;;;;;;;;;15.46;100.00;95637.38;5113727;28;1044;-58
2023/08/11 01:37:45;;;;;;;;;;;;;;;15.55;100.00;95636.28;5113988;28;973;-58
2023/08/11 01:40:11;;;;;;;;;;;;;;;15.58;100.00;95627.84;5113668;28;1993;-58
2023/08/11 01:42:39;;;;;;;;;;;;;;;15.70;100.00;95636.34;5113675;28;1583;-58
2023/08/11 01:45:06;;;;;;;;;;;;;;;15.61;100.00;95638.25;5113560;28;1906;-59
2023/08/11 01:47:33;;;;;;;;;;;;;;;15.65;100.00;95631.50;5115552;28;995;-58
2023/08/11 01:50:00;;;;;;;;;;;;;;;15.74;100.00;95635.81;5118093;28;1049;-58
2023/08/11 01:52:26;;;;;;;;;;;;;;;15.79;100.00;95624.50;5118080;28;1063;-58
2023/08/11 01:54:52;;;;;;;;;;;;;;;15.78;100.00;95628.22;5099685;28;1091;-58
2023/08/11 01:57:18;;;;;;;;;;;;;;;15.80;100.00;95624.34;5117621;28;1003;-59
2023/08/11 01:59:45;;;;;;;;;;;;;;;15.80;100.00;95618.94;5117594;28;1055;-58
2023/08/11 02:02:11;;;;;;;;;;;;;;;15.60;100.00;95617.72;5117795;28;1052;-58
2023/08/11 02:04:38;;;;;;;;;;;;;;;15.62;100.00;95618.38;5117783;28;1991;-58
2023/08/11 02:07:04;;;;;;;;;;;;;;;15.58;100.00;95617.91;5117648;28;995;-59
2023/08/11 02:09:31;;;;;;;;;;;;;;;15.62;100.00;95604.91;5117460;28;965;-59
2023/08/11 02:11:57;;;;;;;;;;;;;;;15.66;100.00;95608.09;5117457;28;1032;-58
2023/08/11 02:14:23;;;;;;;;;;;;;;;15.65;100.00;95609.09;5117512;28;1056;-58
2023/08/11 02:16:48;;;;;;;;;;;;;;;15.60;100.00;95612.34;5117543;28;1003;-58
2023/08/11 02:19:14;;;;;;;;;;;;;;;15.60;100.00;95615.03;5117144;28;1544;-58
2023/08/11 02:21:42;;;;;;;;;;;;;;;15.67;100.00;95612.44;5117333;28;1020;-58
2023/08/11 02:24:08;;;;;;;;;;;;;;;15.69;100.00;95616.66;5117186;28;1111;-58
2023/08/11 02:26:34;;;;;;;;;;;;;;;15.76;100.00;95619.47;5117002;28;1914;-57
2023/08/11 02:28:59;;;;;;;;;;;;;;;15.73;100.00;95617.13;5117050;28;1107;-58
2023/08/11 02:31:26;;;;;;;;;;;;;;;15.74;100.00;95606.16;5116855;28;1088;-59
2023/08/11 02:33:52;;;;;;;;;;;;;;;15.70;100.00;95614.78;5116977;28;1115;-58
2023/08/11 02:37:50;;;;;;;;;;;;;;;15.72;100.00;95613.56;5130398;27;1352019;-57
2023/08/11 02:40:19;;;;;;;;;;;;;;;15.66;100.00;95603.53;5173299;27;1023;-56
2023/08/11 02:42:50;;;;;;;;;;;;;;;15.61;100.00;95612.16;5173633;27;1036;-57
2023/08/11 02:45:16;;;;;;;;;;;;;;;15.58;100.00;95609.00;5173570;27;953;-57
2023/08/11 02:47:42;;;;;;;;;;;;;;;15.50;100.00;95614.41;5173235;27;1010;-57
2023/08/11 02:50:11;;;;;;;;;;;;;;;15.56;100.00;95614.56;5173514;27;1035;-57
2023/08/11 02:52:37;;;;;;;;;;;;;;;15.62;100.00;95615.69;5173341;27;955;-57
2023/08/11 02:55:04;;;;;;;;;;;;;;;15.39;100.00;95605.75;5173067;27;1127;-57
2023/08/11 02:57:31;;;;;;;;;;;;;;;15.35;100.00;95620.59;5172847;27;1996;-57
2023/08/11 02:59:57;;;;;;;;;;;;;;;15.19;100.00;95616.16;5173011;27;1028;-57
2023/08/11 03:02:23;;;;;;;;;;;;;;;15.21;100.00;95615.97;5173158;27;1070;-57
2023/08/11 03:04:49;;;;;;;;;;;;;;;15.19;100.00;95615.31;5173230;27;1036;-57
2023/08/11 03:07:16;;;;;;;;;;;;;;;15.11;100.00;95612.69;5173093;27;992;-57
2023/08/11 03:09:42;;;;;;;;;;;;;;;15.07;100.00;95606.00;5173119;27;1028;-57
2023/08/11 03:12:08;;;;;;;;;;;;;;;14.91;100.00;95610.47;5172773;27;1094;-57
2023/08/11 03:14:35;;;;;;;;;;;;;;;14.99;100.00;95612.25;5172666;27;1617;-56
2023/08/11 03:17:05;;;;;;;;;;;;;;;15.00;100.00;95608.53;5172761;27;1997;-56
2023/08/11 03:19:31;;;;;;;;;;;;;;;14.87;100.00;95608.28;5167622;27;1641;-56
2023/08/11 03:21:57;;;;;;;;;;;;;;;14.87;100.00;95619.88;5151774;27;1083;-57
2023/08/11 03:24:24;;;;;;;;;;;;;;;14.63;100.00;95621.69;5151744;27;1125;-58
2023/08/11 03:26:50;;;;;;;;;;;;;;;14.55;100.00;95620.84;5151674;27;1087;-57
2023/08/11 03:29:16;;;;;;;;;;;;;;;14.57;100.00;95627.78;5151539;27;1056;-58
2023/08/11 03:31:42;;;;;;;;;;;;;;;14.57;100.00;95619.69;5151585;27;1015;-57
2023/08/11 03:34:08;;;;;;;;;;;;;;;14.76;99.31;95615.75;5151519;27;1056;-58
2023/08/11 03:36:34;;;;;;;;;;;;;;;14.59;99.41;95623.06;5151312;27;1987;-57
2023/08/11 03:39:00;;;;;;;;;;;;;;;14.54;100.00;95617.31;5151804;27;964;-58
2023/08/11 03:41:26;;;;;;;;;;;;;;;14.45;98.80;95615.66;5151423;27;1141;-58
2023/08/11 03:43:52;;;;;;;;;;;;;;;14.45;99.58;95615.66;5133112;27;1059;-57
2023/08/11 03:46:18;;;;;;;;;;;;;;;14.47;99.08;95619.00;5151176;27;1280;-57
2023/08/11 03:48:44;;;;;;;;;;;;;;;14.33;99.46;95614.38;5140514;27;1022;-57
2023/08/11 03:51:09;;;;;;;;;;;;;;;14.25;99.52;95613.38;5137194;27;1121;-57
2023/08/11 03:53:36;;;;;;;;;;;;;;;14.06;99.88;95621.84;5119051;27;1071;-60
2023/08/11 03:56:07;;;;;;;;;;;;;;;14.23;100.00;95628.03;5137223;27;1918;-59
2023/08/11 03:58:35;;;;;;;;;;;;;;;14.41;99.72;95627.78;5137170;27;1032;-59
2023/08/11 04:01:01;;;;;;;;;;;;;;;14.65;97.95;95626.91;5118838;27;1087;-59
2023/08/11 04:03:30;;;;;;;;;;;;;;;14.73;98.41;95632.22;5137274;27;952;-60
2023/08/11 04:06:00;;;;;;;;;;;;;;;14.78;99.73;95639.81;5137005;27;1118;-59
2023/08/11 04:08:27;;;;;;;;;;;;;;;14.78;99.13;95623.66;5137112;27;1003;-59
2023/08/11 04:10:53;;;;;;;;;;;;;;;14.87;98.59;95627.94;5137249;27;1042;-60
2023/08/11 04:13:20;;;;;;;;;;;;;;;14.69;97.56;95632.78;5118674;27;952;-60
2023/08/11 04:15:46;;;;;;;;;;;;;;;14.72;99.03;95632.41;5136838;27;1980;-58
2023/08/11 04:18:12;;;;;;;;;;;;;;;14.80;99.39;95635.91;5137390;27;1002;-59
2023/08/11 04:20:39;;;;;;;;;;;;;;;14.75;98.91;95645.53;5137198;27;1650;-59
2023/08/11 04:23:05;;;;;;;;;;;;;;;14.57;98.96;95643.06;5118626;27;1025;-57
2023/08/11 04:25:31;;;;;;;;;;;;;;;14.62;98.81;95641.53;5136949;27;1028;-57
2023/08/11 04:27:59;;;;;;;;;;;;;;;14.80;98.26;95632.38;5136898;27;954;-58
2023/08/11 04:30:25;;;;;;;;;;;;;;;15.14;97.50;95632.03;5136837;27;1069;-58
2023/08/11 04:32:51;;;;;;;;;;;;;;;15.22;99.15;95642.75;5136912;27;1031;-60
2023/08/11 04:35:17;;;;;;;;;;;;;;;15.19;99.44;95644.94;5136379;27;1024;-60
2023/08/11 04:37:43;;;;;;;;;;;;;;;15.24;97.89;95645.25;5125211;27;2020;-60
2023/08/11 04:40:10;;;;;;;;;;;;;;;15.49;97.82;95642.41;5115776;28;922;-59
2023/08/11 04:42:37;;;;;;;;;;;;;;;15.65;96.75;95647.69;5116069;28;1024;-60
2023/08/11 04:45:03;;;;;;;;;;;;;;;15.76;98.16;95641.91;5116049;28;1081;-59
2023/08/11 04:47:29;;;;;;;;;;;;;;;15.83;97.54;95649.25;5115951;28;967;-59
2023/08/11 04:49:55;;;;;;;;;;;;;;;16.03;94.76;95645.03;5115989;28;1010;-59
2023/08/11 04:52:22;;;;;;;;;;;;;;;16.25;91.16;95659.47;5115829;28;982;-59
2023/08/11 04:54:48;;;;;;;;;;;;;;;16.33;93.68;95655.84;5115904;28;1036;-59
2023/08/11 04:57:13;;;;;;;;;;;;;;;16.35;92.12;95665.44;5115253;28;2020;-59
2023/08/11 04:59:40;;;;;;;;;;;;;;;16.48;91.23;95664.78;5114453;28;1011;-58
2023/08/11 05:02:07;;;;;;;;;;;;;;;16.56;90.31;95680.91;5115132;28;967;-59
2023/08/11 05:04:33;;;;;;;;;;;;;;;16.57;91.13;95674.47;5114022;28;1027;-58
2023/08/11 05:06:59;;;;;;;;;;;;;;;16.61;89.62;95679.53;5114188;28;1048;-59
2023/08/11 05:09:26;;;;;;;;;;;;;;;16.90;89.99;95682.25;5113546;28;2482;-59
2023/08/11 05:11:52;;;;;;;;;;;;;;;17.09;90.55;95685.38;5114261;28;1027;-58
2023/08/11 05:14:18;;;;;;;;;;;;;;;17.32;88.31;95687.94;5114977;28;1041;-59
2023/08/11 05:16:44;;;;;;;;;;;;;;;17.39;87.69;95683.47;5115300;28;1986;-58
2023/08/11 05:19:10;;;;;;;;;;;;;;;17.55;85.54;95683.22;5115038;28;1280;-59
2023/08/11 05:21:37;;;;;;;;;;;;;;;17.70;86.41;95690.44;5115084;28;1019;-59
2023/08/11 05:24:04;;;;;;;;;;;;;;;17.80;85.20;95687.44;5114909;28;1115;-58
2023/08/11 05:26:30;;;;;;;;;;;;;;;17.95;82.20;95689.06;5115062;28;992;-59
2023/08/11 05:28:55;;;;;;;;;;;;;;;18.02;82.91;95691.84;5114816;28;974;-59
2023/08/11 05:31:21;;;;;;;;;;;;;;;18.10;85.45;95691.69;5114698;28;1036;-58
2023/08/11 05:33:47;;;;;;;;;;;;;;;18.16;86.64;95689.25;5114750;28;1053;-59
2023/08/11 05:36:13;;;;;;;;;;;;;;;18.19;85.30;95689.69;5096857;28;1987;-58
2023/08/11 05:38:40;;;;;;;;;;;;;;;18.27;84.50;95696.84;5133660;27;1111;-59
2023/08/11 05:41:06;;;;;;;;;;;;;;;18.48;85.43;95690.56;5135184;27;1110;-59
2023/08/11 05:43:32;;;;;;;;;;;;;;;18.54;85.33;95693.28;5135059;27;1054;-60
2023/08/11 05:45:58;;;;;;;;;;;;;;;18.74;83.59;95692.56;5135154;27;971;-59
2023/08/11 05:48:24;;;;;;;;;;;;;;;18.82;81.10;95689.75;5135147;27;1601;-59
2023/08/11 05:50:50;;;;;;;;;;;;;;;18.96;81.34;95695.25;5135121;27;1079;-58
2023/08/11 05:53:16;;;;;;;;;;;;;;;19.01;81.39;95701.75;5134974;27;1111;-59
2023/08/11 05:55:42;;;;;;;;;;;;;;;19.14;82.45;95703.66;5135194;27;1910;-57
2023/08/11 05:58:08;;;;;;;;;;;;;;;19.24;79.01;95701.44;5134909;27;1041;-58
2023/08/11 06:00:34;;;;;;;;;;;;;;;19.19;79.45;95703.91;5135163;27;1029;-58
2023/08/11 06:03:00;;;;;;;;;;;;;;;19.31;79.09;95706.88;5135073;27;965;-58
2023/08/11 06:05:26;;;;;;;;;;;;;;;19.49;78.81;95719.91;5134936;27;1048;-57
2023/08/11 06:07:53;;;;;;;;;;;;;;;19.43;77.26;95707.16;5135060;27;1029;-58
2023/08/11 06:10:18;;;;;;;;;;;;;;;19.58;76.42;95710.53;5133711;27;973;-57
2023/08/11 06:12:44;;;;;;;;;;;;;;;19.78;77.43;95709.78;5133728;27;959;-58
2023/08/11 06:15:10;;;;;;;;;;;;;;;19.92;75.88;95706.06;5134767;27;1015;-58
2023/08/11 06:17:36;;;;;;;;;;;;;;;20.00;78.83;95713.19;5134365;27;1909;-58
2023/08/11 06:20:04;;;;;;;;;;;;;;;19.90;81.95;95716.31;5134705;27;1287;-58
2023/08/11 06:22:31;;;;;;;;;;;;;;;19.98;81.81;95712.56;5134485;27;953;-57
2023/08/11 06:24:57;;;;;;;;;;;;;;;20.15;76.41;95711.09;5134495;27;1048;-57
2023/08/11 06:27:23;;;;;;;;;;;;;;;20.19;77.19;95722.41;5134299;27;1016;-58
2023/08/11 06:29:49;;;;;;;;;;;;;;;20.42;77.32;95711.94;5134677;27;1033;-58
2023/08/11 06:32:14;;;;;;;;;;;;;;;20.64;76.00;95715.31;5134597;27;1048;-58
2023/08/11 06:34:40;;;;;;;;;;;;;;;20.66;74.11;95717.84;5134339;28;1059;-59
2023/08/11 06:37:06;;;;;;;;;;;;;;;20.82;73.79;95719.28;5128178;28;1909;-59
2023/08/11 06:39:34;;;;;;;;;;;;;;;20.79;72.97;95719.69;5113624;28;1107;-57
2023/08/11 06:41:59;;;;;;;;;;;;;;;20.92;75.03;95719.66;5113932;28;988;-58
2023/08/11 06:44:25;;;;;;;;;;;;;;;21.17;72.97;95721.69;5112751;28;2554;-59
2023/08/11 06:46:51;;;;;;;;;;;;;;;21.30;74.16;95721.66;5113961;28;1078;-58
2023/08/11 06:49:17;;;;;;;;;;;;;;;21.47;73.08;95721.22;5113540;28;922;-58
2023/08/11 06:51:43;;;;;;;;;;;;;;;21.66;70.81;95722.19;5113723;28;967;-58
2023/08/11 06:54:09;;;;;;;;;;;;;;;21.79;70.47;95716.66;5113836;28;1051;-59
2023/08/11 06:56:36;;;;;;;;;;;;;;;21.82;69.63;95719.78;5113705;28;1910;-58
2023/08/11 06:59:02;;;;;;;;;;;;;;;21.71;69.36;95712.31;5113850;28;969;-58
2023/08/11 07:01:28;;;;;;;;;;;;;;;21.75;69.15;95715.44;5113705;28;1043;-58
2023/08/11 07:03:53;;;;;;;;;;;;;;;21.85;67.70;95710.34;5113657;28;953;-58
2023/08/11 07:06:20;;;;;;;;;;;;;;;22.12;67.91;95718.34;5113452;28;1064;-58
2023/08/11 07:08:46;;;;;;;;;;;;;;;22.11;67.63;95724.88;5113863;28;1039;-58
2023/08/11 07:11:12;;;;;;;;;;;;;;;22.19;68.14;95719.97;5130369;28;2483;-58
2023/08/11 07:13:38;;;;;;;;;;;;;;;22.21;65.56;95719.75;5134222;28;1024;-58
2023/08/11 07:16:04;;;;;;;;;;;;;;;22.39;66.23;95719.03;5133992;28;1922;-58
2023/08/11 07:18:30;;;;;;;;;;;;;;;22.55;66.75;95720.38;5133887;28;1036;-58
2023/08/11 07:20:56;;;;;;;;;;;;;;;22.86;66.92;95715.91;5117081;28;1354;-58
2023/08/11 07:23:22;;;;;;;;;;;;;;;22.85;62.87;95712.34;5115201;28;960;-58
2023/08/11 07:25:48;;;;;;;;;;;;;;;22.87;64.44;95715.69;5117275;28;1016;-56
2023/08/11 07:28:13;;;;;;;;;;;;;;;22.86;62.20;95721.34;5117527;28;905;-57
2023/08/11 07:30:39;;;;;;;;;;;;;;;22.81;62.69;95716.59;5117408;28;1032;-56
2023/08/11 07:33:05;;;;;;;;;;;;;;;22.70;64.27;95722.75;5117123;28;1072;-57
2023/08/11 07:35:31;;;;;;;;;;;;;;;22.94;63.61;95713.72;5116956;28;1000;-58
2023/08/11 07:37:57;;;;;;;;;;;;;;;23.11;65.16;95718.63;5130015;27;1980;-57
2023/08/11 07:40:23;;;;;;;;;;;;;;;23.13;67.26;95711.88;5137405;27;1040;-56
2023/08/11 07:42:49;;;;;;;;;;;;;;;23.26;66.98;95716.38;5137508;27;1060;-58
2023/08/11 07:45:15;;;;;;;;;;;;;;;23.51;63.81;95719.00;5137674;27;1029;-58
2023/08/11 07:47:41;;;;;;;;;;;;;;;23.71;60.67;95721.50;5137631;27;1024;-58
2023/08/11 07:50:07;;;;;;;;;;;;;;;23.75;61.58;95717.25;5137536;27;1060;-58
2023/08/11 07:52:33;;;;;;;;;;;;;;;23.78;61.52;95724.13;5137068;27;1900;-58
2023/08/11 07:54:59;;;;;;;;;;;;;;;23.71;63.83;95728.84;5137112;27;1040;-57
2023/08/11 07:57:25;;;;;;;;;;;;;;;23.61;58.94;95729.38;5136980;27;1905;-57
2023/08/11 07:59:51;;;;;;;;;;;;;;;23.46;58.64;95718.03;5137259;27;1049;-58
2023/08/11 08:02:17;;;;;;;;;;;;;;;23.48;63.68;95718.63;5137145;27;1011;-58
2023/08/11 08:04:43;;;;;;;;;;;;;;;23.63;59.88;95721.78;5137134;27;1007;-57
2023/08/11 08:07:10;;;;;;;;;;;;;;;23.71;62.80;95710.59;5137054;27;962;-58
2023/08/11 08:09:37;;;;;;;;;;;;;;;23.88;60.19;95713.50;5136969;27;999;-58
2023/08/11 08:12:04;;;;;;;;;;;;;;;23.88;60.90;95718.97;5137198;27;1052;-58
2023/08/11 08:14:30;;;;;;;;;;;;;;;23.94;60.02;95715.34;5136989;27;1083;-58
2023/08/11 08:16:58;;;;;;;;;;;;;;;23.96;60.33;95715.94;5136989;27;1988;-57
2023/08/11 08:19:24;;;;;;;;;;;;;;;24.03;57.68;95710.38;5136645;27;1248;-57
2023/08/11 08:21:50;;;;;;;;;;;;;;;24.21;58.83;95709.50;5136780;27;1947;-58
2023/08/11 08:24:16;;;;;;;;;;;;;;;24.35;59.14;95707.38;5136928;27;1047;-57
2023/08/11 08:26:43;;;;;;;;;;;;;;;24.36;59.18;95704.41;5136930;27;1007;-58
2023/08/11 08:29:09;;;;;;;;;;;;;;;24.50;59.69;95704.19;5136866;27;965;-58
2023/08/11 08:31:35;;;;;;;;;;;;;;;24.52;59.01;95699.34;5136551;27;1059;-59
2023/08/11 08:34:02;;;;;;;;;;;;;;;24.54;59.57;95708.16;5136715;27;1040;-58
2023/08/11 08:36:28;;;;;;;;;;;;;;;24.53;59.37;95711.97;5135820;27;1984;-58
2023/08/11 08:38:54;;;;;;;;;;;;;;;24.51;55.69;95705.84;5115915;28;981;-58
2023/08/11 08:41:23;;;;;;;;;;;;;;;24.39;56.16;95700.38;5115675;28;989;-58
2023/08/11 08:43:52;;;;;;;;;;;;;;;24.48;56.73;95709.06;5116104;28;1011;-58
2023/08/11 08:46:20;;;;;;;;;;;;;;;24.58;59.13;95701.16;5115638;28;1096;-58
2023/08/11 08:48:50;;;;;;;;;;;;;;;24.62;59.15;95696.03;5115795;28;1003;-58
2023/08/11 08:51:16;;;;;;;;;;;;;;;24.61;55.29;95700.69;5115630;28;1032;-57
2023/08/11 08:53:42;;;;;;;;;;;;;;;24.59;56.35;95699.28;5115521;28;2003;-58
2023/08/11 08:56:09;;;;;;;;;;;;;;;24.68;54.76;95692.34;5115456;28;1989;-57
2023/08/11 08:58:35;;;;;;;;;;;;;;;24.74;54.11;95700.47;5115430;28;1044;-58
2023/08/11 09:01:01;;;;;;;;;;;;;;;24.51;54.78;95694.91;5115417;28;1045;-58
2023/08/11 09:03:30;;;;;;;;;;;;;;;23.97;57.28;95693.00;5115244;28;1075;-57
2023/08/11 09:05:56;;;;;;;;;;;;;;;24.19;55.34;95694.38;5115381;28;994;-57
2023/08/11 09:08:22;;;;;;;;;;;;;;;24.45;54.15;95693.97;5115422;28;1105;-57
2023/08/11 09:10:48;;;;;;;;;;;;;;;24.81;53.84;95694.03;5115486;28;1061;-58
2023/08/11 09:13:15;;;;;;;;;;;;;;;25.21;56.49;95685.09;5115259;28;1048;-57
2023/08/11 09:15:41;;;;;;;;;;;;;;;24.74;51.25;95686.78;5115363;28;1905;-58
2023/08/11 09:18:08;;;;;;;;;;;;;;;24.89;54.30;95680.00;5115224;28;969;-57
2023/08/11 09:20:36;;;;;;;;;;;;;;;25.10;54.47;95686.78;5101314;28;1288;-58
2023/08/11 09:23:05;;;;;;;;;;;;;;;24.86;52.23;95691.44;5094508;28;1031;-58
2023/08/11 09:25:31;;;;;;;;;;;;;;;24.82;52.65;95690.25;5094449;28;1103;-58
2023/08/11 09:27:58;;;;;;;;;;;;;;;24.94;56.32;95688.31;5094772;28;981;-58
2023/08/11 09:30:29;;;;;;;;;;;;;;;24.58;54.96;95684.75;5094616;28;1025;-58
2023/08/11 09:32:55;;;;;;;;;;;;;;;24.75;53.90;95687.59;5094403;28;1052;-58
2023/08/11 09:35:24;;;;;;;;;;;;;;;24.96;51.35;95690.81;5094157;28;1847;-58
2023/08/11 09:37:51;;;;;;;;;;;;;;;25.22;50.70;95686.75;5105920;28;1983;-57
2023/08/11 09:40:17;;;;;;;;;;;;;;;25.31;51.65;95682.63;5114745;28;1040;-56
2023/08/11 09:42:43;;;;;;;;;;;;;;;25.19;53.46;95681.75;5114863;28;978;-57
2023/08/11 09:45:09;;;;;;;;;;;;;;;24.68;53.11;95685.00;5114169;28;1095;-58
2023/08/11 09:47:35;;;;;;;;;;;;;;;24.40;54.18;95682.06;5114218;28;1056;-58
2023/08/11 09:50:03;;;;;;;;;;;;;;;24.23;60.66;95682.75;5096656;28;973;-58
2023/08/11 09:52:31;;;;;;;;;;;;;;;24.61;55.91;95675.25;5118730;27;2612;-57
2023/08/11 09:54:57;;;;;;;;;;;;;;;24.90;54.67;95674.28;5135203;27;957;-58
2023/08/11 09:57:25;;;;;;;;;;;;;;;24.72;56.46;95674.44;5134867;27;1995;-57
2023/08/11 09:59:53;;;;;;;;;;;;;;;24.42;55.59;95672.59;5134819;27;1939;-57
2023/08/11 10:02:22;;;;;;;;;;;;;;;24.30;54.68;95677.19;5134999;27;965;-58
2023/08/11 10:04:56;;;;;;;;;;;;;;;24.43;54.01;95670.69;5134657;27;1138;-57
2023/08/11 10:07:24;;;;;;;;;;;;;;;24.77;51.26;95670.97;5131624;27;1079;-58
2023/08/11 10:09:50;;;;;;;;;;;;;;;25.15;53.04;95675.94;5114206;28;1500;-58
2023/08/11 10:12:16;;;;;;;;;;;;;;;25.04;55.23;95672.16;5114244;28;982;-56
2023/08/11 10:14:42;;;;;;;;;;;;;;;25.04;54.95;95666.69;5114221;28;952;-57
2023/08/11 10:17:10;;;;;;;;;;;;;;;24.84;55.20;95664.31;5114052;28;1990;-58
2023/08/11 10:19:36;;;;;;;;;;;;;;;24.68;54.97;95662.28;5114315;28;1618;-57
2023/08/11 10:22:02;;;;;;;;;;;;;;;24.48;57.76;95657.97;5114237;28;1069;-58
2023/08/11 10:24:29;;;;;;;;;;;;;;;24.47;53.59;95660.94;5114246;28;1024;-58
2023/08/11 10:26:55;;;;;;;;;;;;;;;24.67;54.75;95650.53;5114183;28;1038;-57
2023/08/11 10:29:21;;;;;;;;;;;;;;;24.66;55.38;95659.81;5113949;28;975;-57
2023/08/11 10:31:57;;;;;;;;;;;;;;;24.48;53.42;95662.59;5114003;28;1015;-58
2023/08/11 10:34:24;;;;;;;;;;;;;;;24.39;53.98;95655.81;5096130;28;1019;-58
2023/08/11 10:36:53;;;;;;;;;;;;;;;24.24;52.96;95657.09;5110382;28;1994;-58
2023/08/11 10:39:20;;;;;;;;;;;;;;;24.67;54.04;95650.53;5093391;28;1087;-56
2023/08/11 10:41:46;;;;;;;;;;;;;;;24.91;54.40;95648.63;5093637;28;1001;-57
2023/08/11 10:44:17;;;;;;;;;;;;;;;25.00;52.54;95645.50;5093445;28;972;-58
2023/08/11 10:46:43;;;;;;;;;;;;;;;24.89;54.85;95647.16;5093768;28;952;-59
2023/08/11 10:49:09;;;;;;;;;;;;;;;24.71;53.99;95645.41;5093716;28;954;-58
2023/08/11 10:51:36;;;;;;;;;;;;;;;24.52;53.48;95641.97;5093567;28;1034;-58
2023/08/11 10:54:02;;;;;;;;;;;;;;;24.53;55.80;95643.63;5093527;28;962;-58
2023/08/11 10:56:38;;;;;;;;;;;;;;;24.41;56.52;95629.91;5093544;28;1989;-57
2023/08/11 10:59:05;;;;;;;;;;;;;;;24.23;54.03;95646.44;5096300;28;1041;-58
2023/08/11 11:01:41;;;;;;;;;;;;;;;24.16;54.81;95649.25;5097680;28;1057;-58
2023/08/11 11:04:07;;;;;;;;;;;;;;;24.05;54.41;95641.84;5079755;28;1030;-59
2023/08/11 11:06:34;;;;;;;;;;;;;;;24.09;55.58;95643.91;5097215;28;1111;-59
2023/08/11 11:09:01;;;;;;;;;;;;;;;24.36;55.53;95638.81;5097218;28;1096;-58
2023/08/11 11:11:27;;;;;;;;;;;;;;;24.40;54.95;95635.59;5079135;28;1001;-59
2023/08/11 11:13:53;;;;;;;;;;;;;;;24.29;53.99;95645.47;5097481;28;1011;-59
2023/08/11 11:16:20;;;;;;;;;;;;;;;24.19;54.73;95637.00;5096917;28;1902;-59
2023/08/11 11:18:47;;;;;;;;;;;;;;;24.13;54.20;95633.31;5097012;28;1040;-58
2023/08/11 11:21:14;;;;;;;;;;;;;;;24.02;53.03;95632.25;5116277;28;1261;-58
2023/08/11 11:23:46;;;;;;;;;;;;;;;24.05;54.89;95630.94;5117522;28;1010;-58
2023/08/11 11:26:29;;;;;;;;;;;;;;;24.11;58.83;95635.44;5117525;28;1246;-59
2023/08/11 11:28:56;;;;;;;;;;;;;;;24.46;56.80;95618.28;5117334;28;1098;-57
2023/08/11 11:31:23;;;;;;;;;;;;;;;24.77;53.55;95624.47;5099248;28;1453;-58
2023/08/11 11:33:49;;;;;;;;;;;;;;;25.07;51.62;95618.84;5117492;28;1048;-58
2023/08/11 11:36:16;;;;;;;;;;;;;;;25.11;53.11;95611.81;5116971;28;1906;-56
2023/08/11 11:38:43;;;;;;;;;;;;;;;25.12;53.24;95608.03;5116933;28;1230;-57
2023/08/11 11:41:10;;;;;;;;;;;;;;;25.15;51.67;95613.00;5098911;28;1013;-58
2023/08/11 11:43:36;;;;;;;;;;;;;;;25.31;54.52;95606.81;5116959;28;1118;-59
2023/08/11 11:46:02;;;;;;;;;;;;;;;25.46;52.79;95610.91;5117208;28;1092;-57
2023/08/11 11:48:28;;;;;;;;;;;;;;;25.58;51.66;95608.16;5116912;28;1028;-57
2023/08/11 11:50:54;;;;;;;;;;;;;;;25.64;51.58;95609.91;5116980;28;1049;-57
2023/08/11 11:53:21;;;;;;;;;;;;;;;25.70;52.61;95608.91;5116723;28;1048;-57
2023/08/11 11:55:47;;;;;;;;;;;;;;;25.62;51.57;95606.59;5117002;28;2005;-58
2023/08/11 11:58:14;;;;;;;;;;;;;;;25.19;50.61;95610.63;5116463;28;1102;-58
2023/08/11 12:00:41;;;;;;;;;;;;;;;25.16;51.45;95608.38;5115004;28;1055;-59
2023/08/11 12:03:08;;;;;;;;;;;;;;;25.42;51.87;95607.84;5115580;28;1038;-59
2023/08/11 12:05:34;;;;;;;;;;;;;;;25.64;48.16;95607.16;5115353;28;1555;-58
2023/08/11 12:08:00;;;;;;;;;;;;;;;25.79;48.70;95607.44;5098292;28;1047;-58
2023/08/11 12:10:33;;;;;;;;;;;;;;;25.73;47.47;95610.34;5116120;28;974;-58
2023/08/11 12:13:00;;;;;;;;;;;;;;;25.45;46.58;95607.34;5116650;28;1061;-57
2023/08/11 12:15:26;;;;;;;;;;;;;;;25.74;47.04;95601.88;5116218;28;1063;-59
2023/08/11 12:17:53;;;;;;;;;;;;;;;25.98;46.14;95602.59;5116553;28;2059;-59
2023/08/11 12:20:20;;;;;;;;;;;;;;;26.02;47.54;95597.47;5105393;28;2578;-61
2023/08/11 12:22:46;;;;;;;;;;;;;;;26.13;49.86;95602.03;5095710;28;1044;-57
2023/08/11 12:25:13;;;;;;;;;;;;;;;26.17;48.06;95608.69;5095662;28;1040;-60
2023/08/11 12:27:40;;;;;;;;;;;;;;;26.07;45.81;95605.78;5095691;28;1020;-59
2023/08/11 12:30:06;;;;;;;;;;;;;;;26.07;42.95;95614.00;5127271;27;2513;-57
2023/08/11 12:32:32;;;;;;;;;;;;;;;26.12;45.62;95599.56;5136553;27;1097;-55
2023/08/11 12:34:58;;;;;;;;;;;;;;;26.11;46.20;95598.72;5136702;27;1658;-58
2023/08/11 12:37:26;;;;;;;;;;;;;;;26.13;45.21;95604.78;5144899;27;1997;-58
2023/08/11 12:39:51;;;;;;;;;;;;;;;26.13;44.87;95599.31;5157502;27;940;-55
2023/08/11 12:42:17;;;;;;;;;;;;;;;26.07;42.63;95590.16;5157373;27;1000;-60
2023/08/11 12:44:43;;;;;;;;;;;;;;;26.11;44.75;95587.75;5157031;27;1099;-59
2023/08/11 12:47:09;;;;;;;;;;;;;;;26.14;46.36;95583.69;5156880;27;1071;-61
2023/08/11 12:49:35;;;;;;;;;;;;;;;26.13;48.63;95576.56;5139387;27;2553;-57
2023/08/11 12:52:01;;;;;;;;;;;;;;;26.06;46.49;95584.94;5136451;27;1004;-58
2023/08/11 12:54:27;;;;;;;;;;;;;;;25.88;45.18;95588.72;5151767;27;2480;-58
2023/08/11 12:56:53;;;;;;;;;;;;;;;25.70;47.07;95579.63;5156719;27;2013;-58